createdAt,value
2023-01-23T00:01:07.227Z,79.36
2023-01-23T00:03:34.404Z,79.41
2023-01-23T00:06:05.697Z,79.46
2023-01-23T00:08:32.906Z,79.44
2023-01-23T00:10:59.959Z,79.26
2023-01-23T00:13:26.818Z,79.35
2023-01-23T00:15:53.923Z,79.35
2023-01-23T00:18:20.910Z,79.36
2023-01-23T00:20:47.865Z,79.27
2023-01-23T00:23:14.813Z,79.19
2023-01-23T00:25:41.845Z,79.29
2023-01-23T00:28:08.814Z,79.32
2023-01-23T00:30:35.663Z,79.31
2023-01-23T00:33:02.621Z,79.01
2023-01-23T00:35:29.513Z,79.01
2023-01-23T00:37:56.534Z,79.00
2023-01-23T00:40:23.488Z,79.05
2023-01-23T00:42:50.434Z,78.98
2023-01-23T00:45:17.390Z,78.89
2023-01-23T00:47:44.320Z,78.91
2023-01-23T00:50:11.739Z,78.84
2023-01-23T00:52:38.742Z,78.93
2023-01-23T00:55:06.541Z,78.83
2023-01-23T00:57:33.532Z,78.59
2023-01-23T01:00:00.789Z,78.58
2023-01-23T01:02:27.966Z,78.65
2023-01-23T01:04:55.132Z,78.55
2023-01-23T01:07:22.921Z,78.52
2023-01-23T01:09:49.851Z,78.54
2023-01-23T01:12:16.796Z,78.49
2023-01-23T01:14:43.969Z,78.43
2023-01-23T01:17:11.008Z,78.24
2023-01-23T01:19:37.974Z,78.17
2023-01-23T01:22:04.918Z,78.20
2023-01-23T01:24:31.785Z,78.04
2023-01-23T01:26:59.154Z,78.04
2023-01-23T01:29:26.069Z,77.95
2023-01-23T01:31:53.196Z,77.90
2023-01-23T01:34:21.569Z,77.87
2023-01-23T01:36:51.762Z,77.89
2023-01-23T01:39:19.064Z,77.82
2023-01-23T01:41:46.173Z,77.96
2023-01-23T01:44:18.690Z,77.61
2023-01-23T01:46:46.057Z,77.63
2023-01-23T01:49:22.044Z,77.67
2023-01-23T01:52:02.347Z,77.70
2023-01-23T01:54:38.884Z,77.64
2023-01-23T01:57:16.049Z,77.57
2023-01-23T01:59:51.292Z,77.49
2023-01-23T02:02:28.781Z,77.41
2023-01-23T02:05:23.469Z,77.33
2023-01-23T02:08:20.915Z,77.32
2023-01-23T02:10:48.072Z,77.36
2023-01-23T02:13:39.598Z,77.34
2023-01-23T02:16:08.577Z,77.03
2023-01-23T02:18:39.211Z,76.87
2023-01-23T02:21:07.467Z,77.01
2023-01-23T02:23:44.088Z,77.15
2023-01-23T02:26:26.163Z,77.00
2023-01-23T02:28:53.824Z,77.11
2023-01-23T02:31:22.515Z,77.13
2023-01-23T02:33:54.480Z,77.11
2023-01-23T02:36:24.236Z,77.12
2023-01-23T02:39:06.630Z,77.10
2023-01-23T02:41:36.616Z,76.86
2023-01-23T02:44:18.455Z,76.71
2023-01-23T02:46:49.247Z,76.77
2023-01-23T02:49:16.711Z,76.81
2023-01-23T02:51:43.611Z,76.73
2023-01-23T02:54:10.717Z,76.64
2023-01-23T02:56:38.989Z,76.63
2023-01-23T02:59:24.775Z,76.64
2023-01-23T03:01:52.075Z,76.06
2023-01-23T03:04:19.349Z,76.04
2023-01-23T03:06:46.343Z,76.03
2023-01-23T03:09:14.737Z,76.03
2023-01-23T03:11:42.526Z,76.16
2023-01-23T03:14:11.750Z,76.18
2023-01-23T03:16:38.806Z,76.14
2023-01-23T03:19:08.400Z,75.98
2023-01-23T03:21:37.115Z,75.94
2023-01-23T03:24:05.757Z,75.77
2023-01-23T03:26:32.798Z,75.85
2023-01-23T03:29:18.448Z,75.73
2023-01-23T03:31:45.687Z,75.79
2023-01-23T03:34:12.702Z,75.89
2023-01-23T03:36:41.478Z,75.84
2023-01-23T03:39:27.465Z,75.85
2023-01-23T03:41:54.721Z,75.90
2023-01-23T03:44:22.286Z,75.72
2023-01-23T03:46:50.370Z,75.94
2023-01-23T03:49:17.621Z,75.98
2023-01-23T03:51:44.879Z,76.02
2023-01-23T03:54:12.039Z,75.87
2023-01-23T03:56:39.105Z,75.94
2023-01-23T03:59:06.864Z,75.87
2023-01-23T04:01:34.936Z,75.84
2023-01-23T04:04:03.218Z,75.95
2023-01-23T04:06:30.473Z,75.99
2023-01-23T04:08:58.472Z,76.07
2023-01-23T04:11:26.550Z,76.23
2023-01-23T04:13:54.427Z,76.11
2023-01-23T04:16:24.804Z,75.98
2023-01-23T04:18:51.781Z,76.01
2023-01-23T04:21:18.683Z,76.16
2023-01-23T04:23:45.635Z,76.04
2023-01-23T04:26:13.301Z,76.06
2023-01-23T04:28:40.167Z,76.22
2023-01-23T04:31:09.428Z,76.34
2023-01-23T04:33:36.793Z,76.36
2023-01-23T04:36:05.454Z,76.41
2023-01-23T04:38:33.179Z,76.43
2023-01-23T04:41:24.641Z,76.55
2023-01-23T04:43:57.544Z,76.40
2023-01-23T04:46:24.598Z,76.51
2023-01-23T04:49:04.954Z,76.60
2023-01-23T04:51:32.647Z,76.83
2023-01-23T04:53:59.515Z,76.84
2023-01-23T04:56:26.597Z,77.00
2023-01-23T04:58:53.957Z,77.13
2023-01-23T05:01:23.369Z,77.22
2023-01-23T05:03:52.565Z,77.30
2023-01-23T05:06:19.936Z,77.54
2023-01-23T05:08:47.408Z,77.64
2023-01-23T05:11:43.438Z,77.69
2023-01-23T05:14:12.328Z,77.85
2023-01-23T05:16:40.375Z,77.67
2023-01-23T05:19:29.020Z,77.96
2023-01-23T05:21:57.107Z,77.82
2023-01-23T05:24:25.279Z,77.92
2023-01-23T05:26:54.885Z,77.95
2023-01-23T05:29:21.814Z,77.99
2023-01-23T05:31:55.545Z,77.98
2023-01-23T05:34:37.955Z,77.86
2023-01-23T05:37:11.665Z,77.95
2023-01-23T05:39:39.185Z,77.86
2023-01-23T05:42:06.029Z,77.94
2023-01-23T05:44:51.843Z,78.08
2023-01-23T05:47:26.377Z,78.09
2023-01-23T05:49:54.815Z,77.97
2023-01-23T05:52:24.577Z,78.02
2023-01-23T05:54:51.860Z,78.02
2023-01-23T05:57:19.199Z,78.10
2023-01-23T06:00:09.957Z,77.85
2023-01-23T06:02:42.859Z,77.73
2023-01-23T06:05:28.672Z,77.79
2023-01-23T06:08:00.344Z,77.78
2023-01-23T06:10:27.466Z,77.60
2023-01-23T06:12:54.650Z,77.84
2023-01-23T06:15:22.288Z,77.98
2023-01-23T06:17:50.195Z,77.86
2023-01-23T06:20:17.642Z,77.79
2023-01-23T06:22:45.801Z,77.72
2023-01-23T06:25:13.668Z,77.82
2023-01-23T06:27:41.139Z,77.80
2023-01-23T06:30:10.131Z,77.69
2023-01-23T06:32:39.953Z,77.58
2023-01-23T06:35:08.616Z,77.58
2023-01-23T06:37:38.453Z,77.47
2023-01-23T06:40:06.553Z,77.37
2023-01-23T06:42:33.896Z,77.36
2023-01-23T06:45:00.989Z,77.31
2023-01-23T06:47:28.100Z,77.33
2023-01-23T06:49:59.039Z,77.21
2023-01-23T06:52:26.100Z,77.14
2023-01-23T06:54:53.003Z,77.26
2023-01-23T06:57:20.000Z,77.08
2023-01-23T06:59:47.872Z,77.04
2023-01-23T07:02:15.551Z,77.21
2023-01-23T07:04:51.094Z,77.08
2023-01-23T07:07:18.303Z,77.15
2023-01-23T07:09:45.708Z,77.37
2023-01-23T07:12:19.055Z,77.51
2023-01-23T07:14:46.461Z,77.52
2023-01-23T07:17:16.992Z,77.57
2023-01-23T07:19:44.155Z,77.53
2023-01-23T07:22:12.741Z,77.56
2023-01-23T07:24:40.126Z,77.60
2023-01-23T07:27:07.151Z,77.55
2023-01-23T07:29:34.040Z,77.38
2023-01-23T07:32:03.942Z,77.52
2023-01-23T07:34:30.812Z,77.58
2023-01-23T07:36:57.719Z,77.39
2023-01-23T07:39:24.781Z,77.63
2023-01-23T07:41:51.760Z,77.61
2023-01-23T07:44:20.213Z,77.68
2023-01-23T07:46:47.605Z,77.64
2023-01-23T07:49:15.138Z,77.65
2023-01-23T07:51:42.213Z,77.65
2023-01-23T07:54:09.241Z,77.90
2023-01-23T07:56:36.311Z,78.06
2023-01-23T07:59:03.449Z,78.03
2023-01-23T08:01:30.509Z,78.13
2023-01-23T08:03:57.428Z,78.37
2023-01-23T08:06:24.407Z,78.41
2023-01-23T08:08:51.365Z,78.40
2023-01-23T08:11:18.417Z,78.72
2023-01-23T08:13:49.244Z,78.74
2023-01-23T08:16:16.247Z,78.57
2023-01-23T08:18:43.152Z,78.47
2023-01-23T08:21:10.239Z,78.44
2023-01-23T08:23:37.262Z,78.19
2023-01-23T08:26:05.741Z,78.11
2023-01-23T08:28:32.899Z,78.14
2023-01-23T08:31:06.714Z,78.27
2023-01-23T08:33:34.608Z,77.94
2023-01-23T08:36:01.560Z,77.81
2023-01-23T08:38:28.586Z,77.64
2023-01-23T08:40:58.904Z,77.41
2023-01-23T08:43:25.859Z,77.41
2023-01-23T08:45:54.384Z,77.31
2023-01-23T08:48:22.395Z,77.28
2023-01-23T08:50:49.727Z,77.33
2023-01-23T08:53:16.935Z,77.15
2023-01-23T08:55:43.994Z,77.09
2023-01-23T08:58:13.254Z,76.89
2023-01-23T09:00:40.822Z,76.77
2023-01-23T09:03:09.903Z,76.59
2023-01-23T09:05:38.448Z,76.52
2023-01-23T09:08:05.445Z,76.46
2023-01-23T09:10:32.357Z,76.43
2023-01-23T09:12:59.302Z,76.48
2023-01-23T09:15:26.272Z,76.41
2023-01-23T09:17:53.244Z,76.49
2023-01-23T09:20:20.535Z,76.45
2023-01-23T09:22:47.717Z,76.40
2023-01-23T09:25:14.666Z,76.31
2023-01-23T09:27:41.853Z,76.20
2023-01-23T09:30:09.751Z,76.13
2023-01-23T09:32:36.687Z,76.00
2023-01-23T09:35:04.623Z,75.63
2023-01-23T09:37:51.079Z,75.79
2023-01-23T09:40:19.481Z,75.98
2023-01-23T09:42:46.762Z,76.02
2023-01-23T09:45:17.292Z,75.89
2023-01-23T09:47:50.174Z,76.13
2023-01-23T09:50:25.937Z,75.98
2023-01-23T09:52:58.897Z,75.91
2023-01-23T09:55:45.728Z,75.80
2023-01-23T09:58:18.926Z,75.79
2023-01-23T10:00:46.521Z,75.86
2023-01-23T10:03:15.761Z,75.84
2023-01-23T10:06:01.119Z,75.59
2023-01-23T10:08:40.692Z,75.48
2023-01-23T10:11:39.059Z,75.40
2023-01-23T10:14:36.986Z,75.57
2023-01-23T10:17:27.643Z,75.67
2023-01-23T10:20:20.079Z,75.46
2023-01-23T10:23:01.010Z,75.35
2023-01-23T10:25:29.690Z,75.16
2023-01-23T10:27:58.789Z,75.33
2023-01-23T10:30:35.285Z,75.36
2023-01-23T10:33:10.022Z,75.51
2023-01-23T10:35:39.625Z,75.52
2023-01-23T10:38:34.209Z,75.28
2023-01-23T10:41:13.540Z,75.39
2023-01-23T10:43:41.529Z,75.14
2023-01-23T10:46:16.348Z,75.06
2023-01-23T10:48:50.357Z,74.63
2023-01-23T10:51:39.722Z,74.76
2023-01-23T10:54:22.679Z,75.01
2023-01-23T10:56:58.807Z,75.07
2023-01-23T10:59:37.320Z,75.12
2023-01-23T11:02:13.713Z,75.16
2023-01-23T11:04:45.398Z,75.21
2023-01-23T11:07:20.968Z,75.14
2023-01-23T11:10:18.516Z,75.35
2023-01-23T11:12:50.146Z,75.54
2023-01-23T11:15:21.470Z,75.70
2023-01-23T11:17:49.553Z,75.65
2023-01-23T11:20:40.073Z,75.73
2023-01-23T11:23:12.884Z,75.74
2023-01-23T11:25:40.787Z,75.65
2023-01-23T11:28:27.080Z,75.59
2023-01-23T11:31:14.701Z,75.53
2023-01-23T11:34:04.257Z,75.57
2023-01-23T11:36:55.274Z,75.49
2023-01-23T11:39:44.110Z,75.56
2023-01-23T11:42:11.536Z,75.37
2023-01-23T11:44:45.891Z,75.28
2023-01-23T11:47:19.440Z,75.23
2023-01-23T11:50:04.490Z,75.13
2023-01-23T11:52:34.736Z,74.82
2023-01-23T11:55:26.981Z,74.71
2023-01-23T11:58:49.340Z,74.44
2023-01-23T12:02:03.055Z,74.20
2023-01-23T12:05:08.326Z,73.92
2023-01-23T12:08:07.555Z,73.80
2023-01-23T12:10:53.279Z,73.96
2023-01-23T12:13:58.157Z,73.80
2023-01-23T12:16:40.615Z,73.74
2023-01-23T12:19:44.825Z,73.71
2023-01-23T12:22:39.908Z,73.50
2023-01-23T12:25:38.948Z,73.41
2023-01-23T12:28:35.636Z,73.27
2023-01-23T12:31:04.666Z,73.28
2023-01-23T12:33:48.199Z,73.30
2023-01-23T12:36:30.473Z,73.26
2023-01-23T12:39:22.463Z,73.24
2023-01-23T12:41:51.133Z,73.05
2023-01-23T12:44:38.479Z,72.87
2023-01-23T12:47:13.237Z,72.85
2023-01-23T12:49:45.691Z,72.86
2023-01-23T12:52:36.888Z,72.72
2023-01-23T12:55:15.486Z,72.83
2023-01-23T12:58:07.988Z,72.90
2023-01-23T13:00:41.610Z,72.74
2023-01-23T13:03:34.136Z,72.76
2023-01-23T13:06:10.421Z,72.54
2023-01-23T13:08:58.016Z,72.45
2023-01-23T13:11:45.089Z,72.31
2023-01-23T13:15:00.592Z,72.19
2023-01-23T13:17:29.359Z,72.10
2023-01-23T13:20:38.503Z,71.98
2023-01-23T13:23:27.498Z,71.97
2023-01-23T13:26:16.450Z,72.04
2023-01-23T13:28:56.767Z,71.93
2023-01-23T13:31:45.451Z,71.88
2023-01-23T13:34:16.148Z,71.63
2023-01-23T13:36:49.822Z,71.59
2023-01-23T13:39:16.894Z,71.61
2023-01-23T13:41:51.423Z,71.50
2023-01-23T13:44:35.737Z,71.42
2023-01-23T14:22:42.248Z,71.87
2023-01-23T14:25:17.491Z,71.74
2023-01-23T14:27:53.321Z,71.73
2023-01-23T14:30:27.078Z,71.86
2023-01-23T14:32:54.817Z,71.97
2023-01-23T14:35:26.896Z,71.99
2023-01-23T14:37:54.865Z,72.02
2023-01-23T14:40:27.706Z,72.02
2023-01-23T14:43:04.002Z,71.93
2023-01-23T14:45:34.230Z,71.92
2023-01-23T14:48:06.342Z,71.79
2023-01-23T14:50:33.983Z,71.60
2023-01-23T14:53:05.454Z,71.57
2023-01-23T14:55:35.544Z,71.67
2023-01-23T14:58:02.583Z,71.52
2023-01-23T15:00:29.598Z,71.49
2023-01-23T15:02:56.837Z,71.51
2023-01-23T15:05:27.037Z,71.56
2023-01-23T15:08:03.230Z,71.33
2023-01-23T15:10:32.701Z,71.31
2023-01-23T15:13:05.116Z,71.35
2023-01-23T15:15:33.332Z,71.30
2023-01-23T15:18:01.523Z,71.42
2023-01-23T15:20:29.802Z,71.35
2023-01-23T15:22:57.825Z,71.30
2023-01-23T15:25:35.221Z,71.36
2023-01-23T15:28:02.694Z,71.23
2023-01-23T15:30:29.966Z,71.15
2023-01-23T15:33:06.220Z,71.09
2023-01-23T15:35:37.612Z,70.88
2023-01-23T15:38:08.619Z,70.70
2023-01-23T15:40:39.230Z,70.86
2023-01-23T15:43:18.895Z,70.93
2023-01-23T15:45:47.292Z,70.97
2023-01-23T15:48:15.757Z,70.89
2023-01-23T15:50:43.865Z,70.83
2023-01-23T15:53:13.178Z,70.83
2023-01-23T15:55:41.660Z,70.85
2023-01-23T15:58:14.766Z,70.81
2023-01-23T16:00:42.952Z,70.72
2023-01-23T16:03:14.776Z,70.69
2023-01-23T16:05:43.221Z,70.58
2023-01-23T16:08:29.604Z,70.57
2023-01-23T16:10:58.187Z,70.72
2023-01-23T16:13:26.567Z,70.70
2023-01-23T16:15:56.714Z,70.76
2023-01-23T16:18:24.928Z,70.79
2023-01-23T16:20:54.417Z,70.77
2023-01-23T16:23:31.305Z,70.74
2023-01-23T16:26:04.783Z,70.68
2023-01-23T16:28:33.259Z,70.73
2023-01-23T16:31:01.980Z,70.91
2023-01-23T16:33:30.947Z,70.81
2023-01-23T16:35:59.557Z,70.79
2023-01-23T16:38:28.581Z,70.85
2023-01-23T16:40:59.716Z,70.81
2023-01-23T16:43:28.383Z,70.77
2023-01-23T16:45:57.817Z,70.89
2023-01-23T16:48:27.922Z,70.79
2023-01-23T16:51:24.337Z,70.88
2023-01-23T16:53:53.948Z,71.00
2023-01-23T16:56:30.461Z,71.02
2023-01-23T16:58:58.659Z,71.02
2023-01-23T17:01:27.096Z,71.15
2023-01-23T17:04:00.003Z,71.02
2023-01-23T17:06:28.159Z,71.20
2023-01-23T17:08:57.257Z,71.23
2023-01-23T17:11:39.995Z,71.26
2023-01-23T17:14:29.327Z,71.25
2023-01-23T17:17:07.287Z,71.24
2023-01-23T17:19:37.653Z,71.26
2023-01-23T17:22:06.262Z,71.35
2023-01-23T17:24:34.438Z,71.38
2023-01-23T17:27:03.206Z,71.19
2023-01-23T17:29:31.787Z,71.24
2023-01-23T17:32:00.065Z,71.36
2023-01-23T17:34:29.273Z,71.45
2023-01-23T17:36:57.518Z,71.60
2023-01-23T17:39:26.086Z,71.42
2023-01-23T17:41:54.390Z,71.53
2023-01-23T17:44:22.629Z,71.65
2023-01-23T17:46:54.788Z,71.76
2023-01-23T17:49:29.953Z,71.80
2023-01-23T17:51:59.452Z,71.77
2023-01-23T17:54:27.744Z,71.68
2023-01-23T17:57:01.126Z,71.55
2023-01-23T17:59:29.404Z,71.41
2023-01-23T18:01:58.075Z,71.44
2023-01-23T18:04:30.474Z,71.48
2023-01-23T18:06:59.286Z,71.43
2023-01-23T18:09:28.474Z,71.52
2023-01-23T18:11:59.169Z,71.41
2023-01-23T18:14:47.837Z,71.39
2023-01-23T18:17:26.275Z,71.26
2023-01-23T18:19:54.987Z,71.32
2023-01-23T18:22:23.381Z,71.37
2023-01-23T18:24:52.040Z,71.38
2023-01-23T18:27:26.661Z,71.21
2023-01-23T18:30:17.552Z,71.20
2023-01-23T18:33:11.730Z,71.20
2023-01-23T18:36:12.675Z,71.35
2023-01-23T18:39:03.349Z,71.27
2023-01-23T18:41:31.752Z,71.18
2023-01-23T18:44:15.165Z,71.18
2023-01-23T18:46:43.653Z,71.18
2023-01-23T18:49:27.754Z,71.13
2023-01-23T18:52:18.280Z,71.10
2023-01-23T18:54:58.940Z,71.22
2023-01-23T18:57:28.093Z,71.31
2023-01-23T19:00:05.985Z,71.25
2023-01-23T19:02:50.483Z,71.23
2023-01-23T19:05:30.061Z,71.28
2023-01-23T19:08:00.045Z,71.37
2023-01-23T19:10:47.705Z,71.40
2023-01-23T19:13:29.797Z,71.41
2023-01-23T19:16:07.458Z,71.36
2023-01-23T19:18:49.567Z,71.42
2023-01-23T19:21:23.132Z,71.28
2023-01-23T19:24:00.617Z,71.43
2023-01-23T19:26:32.163Z,71.32
2023-01-23T19:29:05.656Z,71.27
2023-01-23T19:31:43.684Z,71.36
2023-01-23T19:34:16.300Z,71.37
2023-01-23T19:36:44.907Z,71.26
2023-01-23T19:39:13.579Z,71.34
2023-01-23T19:41:44.137Z,71.41
2023-01-23T19:44:13.721Z,71.31
2023-01-23T19:46:42.754Z,71.35
2023-01-23T19:49:11.418Z,71.27
2023-01-23T19:51:40.537Z,71.23
2023-01-23T19:54:12.680Z,71.12
2023-01-23T19:56:41.083Z,71.03
2023-01-23T19:59:09.681Z,71.04
2023-01-23T20:01:46.796Z,70.94
2023-01-23T20:04:17.806Z,71.04
2023-01-23T20:06:52.272Z,71.01
2023-01-23T20:09:21.423Z,71.02
2023-01-23T20:12:00.437Z,71.16
2023-01-23T20:14:31.808Z,71.19
2023-01-23T20:17:04.748Z,71.06
2023-01-23T20:19:34.186Z,70.92
2023-01-23T20:22:05.579Z,71.09
2023-01-23T20:24:36.781Z,70.98
2023-01-23T20:27:05.365Z,70.85
2023-01-23T20:29:34.765Z,70.90
2023-01-23T20:32:04.112Z,70.91
2023-01-23T20:34:34.098Z,70.89
2023-01-23T20:37:02.934Z,70.92
2023-01-23T20:39:38.797Z,70.83
2023-01-23T20:42:08.859Z,70.78
2023-01-23T20:44:38.414Z,70.78
2023-01-23T20:47:10.311Z,70.87
2023-01-23T20:49:40.516Z,70.70
2023-01-23T20:52:29.978Z,70.86
2023-01-23T20:55:00.227Z,70.91
2023-01-23T20:57:51.835Z,70.99
2023-01-23T21:00:24.136Z,70.98
2023-01-23T21:02:53.275Z,70.98
2023-01-23T21:05:22.101Z,71.03
2023-01-23T21:07:50.969Z,71.06
2023-01-23T21:10:19.732Z,70.98
2023-01-23T21:12:48.281Z,70.96
2023-01-23T21:15:20.347Z,70.69
2023-01-23T21:17:49.038Z,70.73
2023-01-23T21:20:20.683Z,70.72
2023-01-23T21:22:50.993Z,70.64
2023-01-23T21:25:22.205Z,70.56
2023-01-23T21:27:50.876Z,70.52
2023-01-23T21:30:19.014Z,70.45
2023-01-23T21:32:48.023Z,70.33
2023-01-23T21:35:17.760Z,70.15
2023-01-23T21:37:50.017Z,70.09
2023-01-23T21:40:18.763Z,70.00
2023-01-23T21:42:48.188Z,69.87
2023-01-23T21:45:19.839Z,69.61
2023-01-23T21:47:48.092Z,69.42
2023-01-23T21:50:20.046Z,69.11
2023-01-23T21:52:48.667Z,69.09
2023-01-23T21:55:16.969Z,69.24
2023-01-23T21:57:45.070Z,69.40
2023-01-23T22:00:32.499Z,69.42
2023-01-23T22:03:00.639Z,69.46
2023-01-23T22:05:29.515Z,69.38
2023-01-23T22:07:57.716Z,69.27
2023-01-23T22:10:26.329Z,69.16
2023-01-23T22:12:54.794Z,69.12
2023-01-23T22:15:23.615Z,68.92
2023-01-23T22:17:52.212Z,68.69
2023-01-23T22:20:20.477Z,68.70
2023-01-23T22:22:48.724Z,68.58
2023-01-23T22:25:17.087Z,68.42
2023-01-23T22:27:45.093Z,68.24
2023-01-23T22:30:13.483Z,68.13
2023-01-23T22:32:41.728Z,68.00
2023-01-23T22:35:13.023Z,68.02
2023-01-23T22:37:43.621Z,68.08
2023-01-23T22:40:11.947Z,68.15
2023-01-23T22:42:40.053Z,67.96
2023-01-23T22:45:09.961Z,67.84
2023-01-23T22:47:38.485Z,67.77
2023-01-23T22:50:07.438Z,67.63
2023-01-23T22:52:36.741Z,67.64
2023-01-23T22:55:05.333Z,67.68
2023-01-23T22:57:33.398Z,67.86
2023-01-23T23:00:02.746Z,68.05
2023-01-23T23:02:31.516Z,68.06
2023-01-23T23:04:59.704Z,68.01
2023-01-23T23:07:30.193Z,67.94
2023-01-23T23:09:58.718Z,67.84
2023-01-23T23:12:27.621Z,67.77
2023-01-23T23:14:56.194Z,67.67
2023-01-23T23:17:24.378Z,67.57
2023-01-23T23:19:52.477Z,67.62
2023-01-23T23:22:20.617Z,67.42
2023-01-23T23:24:48.645Z,67.37
2023-01-23T23:27:16.799Z,67.26
2023-01-23T23:29:45.051Z,67.11
2023-01-23T23:32:13.195Z,67.05
2023-01-23T23:34:41.512Z,67.09
2023-01-23T23:37:09.524Z,66.90
2023-01-23T23:39:37.804Z,66.52
2023-01-23T23:42:05.980Z,66.35
2023-01-23T23:44:34.332Z,66.40
2023-01-23T23:47:02.455Z,66.41
2023-01-23T23:49:30.713Z,66.19
2023-01-23T23:52:02.086Z,66.12
2023-01-23T23:54:30.270Z,66.10
2023-01-23T23:56:58.388Z,66.15
2023-01-23T23:59:26.680Z,66.10
